Time;durP1;ratioP1;P1;durP2;ratioP2;P2;SDS_P1;SDS_P2;PMS_P1;PMS_P2;Temp;Humidity;BMP_temperature;BMP_pressure;BME280_temperature;BME280_humidity;BME280_pressure;Samples;Min_cycle;Max_cycle;Signal;HPM_P1;HPM_P2
2024/03/04 00:04:39;;;;;;;12.15;10.80;;;;;;;5.57;100.00;97166.22;15275252;19;20035;-49
2024/03/04 00:10:07;;;;;;;14.73;12.15;;;;;;;5.53;100.00;97168.38;15280431;19;20282;-51
2024/03/04 00:15:33;;;;;;;18.10;15.50;;;;;;;5.56;100.00;97172.56;15298388;19;20018;-49
2024/03/04 00:20:58;;;;;;;16.85;14.80;;;;;;;5.55;100.00;97174.41;15296160;19;20105;-49
2024/03/04 00:26:26;;;;;;;18.38;14.38;;;;;;;5.44;100.00;97174.69;15298609;19;20015;-50
2024/03/04 00:31:51;;;;;;;20.15;16.85;;;;;;;5.37;100.00;97178.97;15296135;19;20022;-51
2024/03/04 00:37:15;;;;;;;18.45;14.70;;;;;;;5.34;100.00;97173.97;15286112;19;140803;-48
2024/03/04 00:42:43;;;;;;;16.05;14.35;;;;;;;5.32;100.00;97178.63;15297126;19;20022;-50
2024/03/04 00:48:08;;;;;;;16.02;14.18;;;;;;;5.28;100.00;97185.28;15288447;19;20019;-51
2024/03/04 00:53:32;;;;;;;17.73;14.40;;;;;;;5.20;100.00;97178.91;15292557;19;20021;-50
2024/03/04 00:59:00;;;;;;;22.50;16.20;;;;;;;4.96;100.00;97184.09;15288150;19;20014;-49
2024/03/04 01:04:25;;;;;;;20.98;16.27;;;;;;;4.92;100.00;97180.91;15289985;19;20102;-50
2024/03/04 01:09:50;;;;;;;15.23;13.15;;;;;;;4.90;100.00;97189.03;15289886;19;20018;-49
2024/03/04 01:15:19;;;;;;;15.30;12.93;;;;;;;4.80;100.00;97198.16;15292738;19;20030;-49
2024/03/04 01:20:44;;;;;;;13.85;12.05;;;;;;;4.73;100.00;97189.94;15291186;19;20729;-49
2024/03/04 01:26:09;;;;;;;16.52;12.60;;;;;;;4.67;100.00;97194.06;15292999;19;20078;-49
2024/03/04 01:31:37;;;;;;;17.85;14.77;;;;;;;4.62;100.00;97201.66;15292498;19;20022;-50
2024/03/04 01:37:02;;;;;;;17.15;14.80;;;;;;;4.59;100.00;97202.81;15296363;19;20506;-51
2024/03/04 01:42:26;;;;;;;20.67;15.70;;;;;;;4.57;100.00;97204.81;15293716;19;20030;-52
2024/03/04 01:47:54;;;;;;;19.05;14.88;;;;;;;4.54;100.00;97199.75;15290715;19;20368;-49
2024/03/04 01:53:18;;;;;;;17.27;14.93;;;;;;;4.52;100.00;97211.59;15292336;19;20496;-48
2024/03/04 01:58:50;;;;;;;15.60;13.05;;;;;;;4.50;100.00;97218.91;15289731;19;20017;-50
2024/03/04 02:04:18;;;;;;;16.65;13.80;;;;;;;4.38;100.00;97218.31;15288962;19;20006;-52
2024/03/04 02:09:45;;;;;;;16.40;13.18;;;;;;;4.13;100.00;97224.19;15286429;19;20027;-53
2024/03/04 02:15:11;;;;;;;18.40;15.00;;;;;;;4.01;100.00;97230.72;15291720;19;20031;-54
2024/03/04 02:20:42;;;;;;;19.13;15.57;;;;;;;4.01;100.00;97241.38;15288607;19;20420;-53
2024/03/04 02:26:10;;;;;;;18.55;15.15;;;;;;;4.01;100.00;97236.91;15292363;19;20082;-48
2024/03/04 02:31:35;;;;;;;18.50;14.77;;;;;;;3.99;100.00;97230.06;15290661;19;20442;-80
2024/03/04 02:36:59;;;;;;;18.25;14.85;;;;;;;3.97;100.00;97234.69;15298177;19;20086;-80
2024/03/04 02:42:27;;;;;;;19.88;15.38;;;;;;;3.99;100.00;97243.38;15311039;19;20010;-80
2024/03/04 02:47:51;;;;;;;18.42;14.80;;;;;;;4.03;100.00;97246.59;15306008;19;20019;-80
2024/03/04 02:53:16;;;;;;;20.20;15.40;;;;;;;4.09;100.00;97251.31;15307053;19;20018;-78
2024/03/04 02:58:43;;;;;;;21.65;15.43;;;;;;;4.10;100.00;97260.97;15299281;19;20006;-79
2024/03/04 03:04:08;;;;;;;19.75;14.68;;;;;;;4.09;100.00;97259.31;15309144;19;20039;-79
2024/03/04 03:09:32;;;;;;;20.20;16.23;;;;;;;4.01;100.00;97263.56;15044960;19;5001450;-79
2024/03/04 03:15:00;;;;;;;22.55;16.48;;;;;;;3.98;100.00;97269.19;15315167;19;20518;-79
2024/03/04 03:20:24;;;;;;;25.98;18.88;;;;;;;3.89;100.00;97275.41;15350413;19;20018;-78
2024/03/04 03:25:50;;;;;;;25.33;17.40;;;;;;;3.79;100.00;97280.75;15288234;19;20012;-78
2024/03/04 03:31:22;;;;;;;21.85;15.82;;;;;;;3.73;100.00;97286.69;15286849;19;20017;-78
2024/03/04 03:36:50;;;;;;;17.88;14.90;;;;;;;3.64;100.00;97288.41;15288864;19;20021;-79
2024/03/04 03:42:14;;;;;;;17.33;14.13;;;;;;;3.55;100.00;97283.94;15290878;19;20019;-78
2024/03/04 03:47:41;;;;;;;18.10;13.65;;;;;;;3.46;100.00;97285.66;15300793;19;20014;-78
2024/03/04 03:53:06;;;;;;;18.23;14.25;;;;;;;3.36;100.00;97298.97;15311657;19;20515;-78
2024/03/04 03:58:38;;;;;;;29.65;16.50;;;;;;;3.20;100.00;97301.41;15303503;19;20021;-79
2024/03/04 04:04:05;;;;;;;559.33;26.02;;;;;;;3.14;100.00;97304.63;15311233;19;20018;-78
2024/03/04 04:09:30;;;;;;;82.70;21.67;;;;;;;3.07;100.00;97307.84;15307041;19;20364;-78
2024/03/04 04:14:55;;;;;;;120.13;17.98;;;;;;;3.02;100.00;97304.78;15302924;19;20007;-77
2024/03/04 04:20:23;;;;;;;173.32;18.50;;;;;;;2.99;100.00;97313.06;15309207;19;20078;-77
2024/03/04 04:25:49;;;;;;;561.38;22.25;;;;;;;2.95;100.00;97316.97;15305912;19;20022;-77
2024/03/04 04:31:14;;;;;;;397.48;19.77;;;;;;;2.88;100.00;97318.53;15319621;19;20077;-77
2024/03/04 04:42:17;;;;;;;543.22;18.67;;;;;;;2.83;100.00;97344.69;15303519;19;20011;-78
2024/03/04 04:47:42;;;;;;;608.95;20.55;;;;;;;2.77;100.00;97354.88;15309887;19;20485;-79
2024/03/04 04:53:11;;;;;;;453.13;18.17;;;;;;;2.75;100.00;97362.19;15310021;19;20018;-78
2024/03/04 04:58:35;;;;;;;121.88;13.90;;;;;;;2.71;100.00;97362.56;15294716;19;20039;-77
2024/03/04 05:04:00;;;;;;;175.45;13.50;;;;;;;2.69;100.00;97370.69;15305545;19;20014;-78
2024/03/04 05:09:47;;;;;;;272.42;14.10;;;;;;;2.65;100.00;97379.91;15297927;19;20026;-78
2024/03/04 05:15:13;;;;;;;211.88;12.40;;;;;;;2.52;100.00;97392.66;15291432;19;20463;-77
2024/03/04 05:20:38;;;;;;;191.38;11.52;;;;;;;2.44;100.00;97396.00;15300771;19;20025;-77
2024/03/04 05:26:16;;;;;;;145.55;11.18;;;;;;;2.35;100.00;97402.13;15294406;19;20020;-77
2024/03/04 05:31:53;;;;;;;165.40;11.20;;;;;;;2.28;100.00;97401.81;15297351;19;20014;-77
2024/03/04 05:37:19;;;;;;;118.32;10.68;;;;;;;2.20;100.00;97409.59;15292808;19;20039;-78
2024/03/04 05:42:47;;;;;;;176.32;10.40;;;;;;;2.10;100.00;97415.72;15296300;19;20818;-77
2024/03/04 05:48:13;;;;;;;60.88;9.80;;;;;;;2.05;100.00;97423.25;15298859;19;20494;-77
2024/03/04 05:53:37;;;;;;;89.30;9.82;;;;;;;2.04;100.00;97421.56;15299020;19;20485;-77
2024/03/04 05:59:05;;;;;;;124.07;10.25;;;;;;;2.07;100.00;97433.72;15295731;19;20097;-78
2024/03/04 06:04:29;;;;;;;159.73;11.38;;;;;;;2.02;100.00;97439.44;15307225;19;20022;-78
2024/03/04 06:09:54;;;;;;;175.13;12.20;;;;;;;2.03;100.00;97449.09;15298157;19;20043;-78
2024/03/04 06:15:21;;;;;;;615.90;18.30;;;;;;;2.01;100.00;97461.66;15301887;19;20014;-78
2024/03/04 06:20:46;;;;;;;462.08;17.55;;;;;;;1.98;100.00;97461.91;15304314;19;20017;-77
2024/03/04 06:26:12;;;;;;;451.02;16.80;;;;;;;2.03;100.00;97469.50;15294254;19;20211;-77
2024/03/04 06:31:40;;;;;;;446.52;17.02;;;;;;;2.09;100.00;97472.47;15295063;19;20039;-76
2024/03/04 06:37:04;;;;;;;135.38;14.30;;;;;;;2.20;100.00;97473.38;15287060;19;20023;-75
2024/03/04 06:42:29;;;;;;;297.77;13.50;;;;;;;2.30;100.00;97484.88;15289926;19;20021;-76
2024/03/04 06:48:00;;;;;;;170.85;10.73;;;;;;;2.34;100.00;97483.66;15290553;19;20031;-76
2024/03/04 06:53:24;;;;;;;84.07;11.05;;;;;;;2.38;100.00;97490.41;15290315;19;20010;-76
2024/03/04 06:58:49;;;;;;;316.98;12.88;;;;;;;2.38;100.00;97511.66;15291575;19;20243;-76
2024/03/04 07:04:16;;;;;;;301.48;12.30;;;;;;;2.36;100.00;97521.59;15295368;19;20027;-76
2024/03/04 07:09:41;;;;;;;532.75;16.08;;;;;;;2.42;100.00;97525.53;15284550;19;20006;-77
2024/03/04 07:15:06;;;;;;;348.95;14.10;;;;;;;2.43;100.00;97533.34;15288403;19;20018;-77
2024/03/04 07:20:34;;;;;;;494.52;16.58;;;;;;;2.49;100.00;97526.66;15297497;19;20018;-77
2024/03/04 07:25:59;;;;;;;345.20;15.82;;;;;;;2.52;100.00;97534.38;15286828;19;20015;-76
2024/03/04 07:31:24;;;;;;;477.60;16.85;;;;;;;2.59;100.00;97540.84;14776562;19;10001224;-78
2024/03/04 07:36:52;;;;;;;429.00;16.73;;;;;;;2.66;100.00;97551.81;15288076;19;20023;-77
2024/03/04 07:42:17;;;;;;;529.03;17.35;;;;;;;2.76;100.00;97549.19;15293880;19;20020;-78
2024/03/04 07:47:41;;;;;;;515.05;17.70;;;;;;;2.84;100.00;97562.66;15296098;19;20046;-78
2024/03/04 07:53:09;;;;;;;520.08;17.55;;;;;;;2.89;100.00;97555.13;15291818;19;20011;-78
2024/03/04 07:58:35;;;;;;;380.27;16.27;;;;;;;2.98;100.00;97564.13;15279871;19;20006;-77
2024/03/04 08:04:00;;;;;;;358.80;16.52;;;;;;;3.05;100.00;97570.59;15293163;19;20029;-78
2024/03/04 08:09:27;;;;;;;538.50;17.92;;;;;;;3.10;100.00;97570.19;15286173;19;20025;-77
2024/03/04 08:14:51;;;;;;;554.90;18.95;;;;;;;3.18;100.00;97569.50;15291475;19;20017;-77
2024/03/04 08:20:21;;;;;;;531.50;18.70;;;;;;;3.34;100.00;97564.53;15281141;19;20033;-77
2024/03/04 08:25:54;;;;;;;772.05;23.73;;;;;;;3.52;100.00;97571.81;15282347;19;20015;-78
2024/03/04 08:31:19;;;;;;;683.95;23.20;;;;;;;3.63;100.00;97578.88;15280911;19;20018;-77
2024/03/04 08:36:43;;;;;;;666.13;23.67;;;;;;;3.70;100.00;97588.81;15316254;19;20018;-77
2024/03/04 08:42:11;;;;;;;748.95;29.15;;;;;;;3.72;100.00;97590.50;15305218;19;20326;-78
2024/03/04 08:47:36;;;;;;;491.83;25.58;;;;;;;3.75;100.00;97598.22;15307610;19;20429;-78
2024/03/04 08:53:01;;;;;;;476.92;23.60;;;;;;;3.79;100.00;97603.13;15307403;19;20015;-78
2024/03/04 08:58:28;;;;;;;590.28;26.55;;;;;;;3.87;100.00;97609.59;15294217;19;20018;-76
2024/03/04 09:03:53;;;;;;;535.25;25.05;;;;;;;3.98;100.00;97609.47;15294081;19;20491;-75
2024/03/04 09:09:18;;;;;;;469.13;24.05;;;;;;;4.03;100.00;97633.84;15300125;19;20031;-75
2024/03/04 09:14:45;;;;;;;520.88;24.67;;;;;;;4.16;100.00;97625.59;15299535;19;20398;-75
2024/03/04 09:20:11;;;;;;;418.60;22.85;;;;;;;4.29;100.00;97622.63;15286853;19;20018;-75
2024/03/04 09:25:36;;;;;;;254.98;20.85;;;;;;;4.42;100.00;97617.84;15288887;19;20033;-75
2024/03/04 09:31:04;;;;;;;410.83;21.10;;;;;;;4.54;100.00;97631.88;15294039;19;20078;-75
2024/03/04 09:36:29;;;;;;;459.40;20.48;;;;;;;4.69;100.00;97634.09;15288213;19;20011;-75
2024/03/04 09:42:02;;;;;;;506.60;22.50;;;;;;;4.81;100.00;97632.13;15300475;19;20011;-74
2024/03/04 09:47:29;;;;;;;311.33;19.02;;;;;;;4.83;100.00;97646.13;15298436;19;20014;-75
2024/03/04 09:52:56;;;;;;;307.80;19.67;;;;;;;4.92;100.00;97654.13;15297487;19;20081;-75
2024/03/04 09:58:21;;;;;;;361.00;20.20;;;;;;;5.04;100.00;97648.63;15289674;19;20018;-75
2024/03/04 10:03:48;;;;;;;319.33;20.83;;;;;;;5.13;100.00;97655.75;15296406;19;20528;-75
2024/03/04 10:09:12;;;;;;;329.83;21.43;;;;;;;5.28;100.00;97645.44;15032494;19;5002153;-75
2024/03/04 10:14:38;;;;;;;55.63;17.83;;;;;;;5.44;100.00;97646.63;15294364;19;20281;-75
2024/03/04 10:20:03;;;;;;;354.17;21.17;;;;;;;5.61;100.00;97645.00;15287228;19;20031;-75
2024/03/04 10:25:27;;;;;;;218.48;19.08;;;;;;;5.69;100.00;97661.16;15284839;19;20026;-75
2024/03/04 10:30:52;;;;;;;90.82;20.13;;;;;;;5.79;100.00;97661.94;15288334;19;20481;-75
2024/03/04 10:36:21;;;;;;;116.28;21.70;;;;;;;5.93;100.00;97660.56;15284290;19;20030;-75
2024/03/04 10:41:46;;;;;;;116.20;21.60;;;;;;;5.98;100.00;97660.13;15288270;19;20021;-75
2024/03/04 10:47:12;;;;;;;328.00;23.98;;;;;;;6.03;100.00;97660.53;15294446;19;20023;-75
2024/03/04 10:52:41;;;;;;;84.93;23.20;;;;;;;6.16;100.00;97668.19;15289608;19;20753;-75
2024/03/04 10:58:07;;;;;;;66.68;21.92;;;;;;;6.24;100.00;97662.09;15288258;19;20021;-75
2024/03/04 11:03:36;;;;;;;42.45;22.23;;;;;;;6.31;100.00;97672.03;15292932;19;20019;-75
2024/03/04 11:09:08;;;;;;;36.15;20.50;;;;;;;6.42;100.00;97681.63;15284732;19;20465;-75
2024/03/04 11:14:38;;;;;;;28.52;20.75;;;;;;;6.56;100.00;97672.25;15293219;19;20357;-76
2024/03/04 11:20:05;;;;;;;36.53;22.17;;;;;;;6.72;100.00;97681.38;15292425;19;20018;-77
2024/03/04 11:25:33;;;;;;;34.35;22.65;;;;;;;6.82;100.00;97681.31;15287670;19;20351;-77
2024/03/04 11:30:58;;;;;;;35.55;21.65;;;;;;;7.01;100.00;97686.44;15290828;19;20015;-76
2024/03/04 11:36:25;;;;;;;31.67;21.55;;;;;;;7.23;100.00;97695.00;15279916;19;20015;-76
2024/03/04 11:41:54;;;;;;;29.92;21.92;;;;;;;7.36;100.00;97681.97;15287230;19;20021;-76
2024/03/04 11:47:20;;;;;;;26.15;21.15;;;;;;;7.55;100.00;97683.59;15285917;19;20515;-77
2024/03/04 11:52:44;;;;;;;25.52;19.95;;;;;;;7.70;100.00;97683.00;15286778;19;20026;-77
2024/03/04 11:58:12;;;;;;;25.58;20.15;;;;;;;7.94;100.00;97682.22;15284323;19;20015;-77
2024/03/04 12:03:36;;;;;;;24.10;20.15;;;;;;;8.10;100.00;97686.81;15292827;19;20015;-77
2024/03/04 12:09:01;;;;;;;24.88;19.85;;;;;;;8.25;100.00;97695.06;15295828;19;20015;-77
2024/03/04 12:14:49;;;;;;;25.30;20.15;;;;;;;8.39;100.00;97703.47;15302303;19;20029;-78
2024/03/04 12:20:17;;;;;;;24.98;20.75;;;;;;;8.43;100.00;97692.25;15306248;19;20014;-76
2024/03/04 12:25:42;;;;;;;23.65;20.02;;;;;;;8.55;100.00;97695.47;15303907;19;20010;-77
2024/03/04 12:31:09;;;;;;;25.30;20.60;;;;;;;8.68;100.00;97688.75;15300483;19;20375;-77
2024/03/04 12:36:34;;;;;;;23.95;20.20;;;;;;;8.78;100.00;97684.91;15297104;19;20086;-76
2024/03/04 12:41:59;;;;;;;25.30;20.77;;;;;;;8.85;100.00;97684.22;15306731;19;20411;-77
2024/03/04 12:47:27;;;;;;;22.15;19.42;;;;;;;8.94;100.00;97675.16;15305692;19;20029;-76
2024/03/04 12:52:53;;;;;;;22.50;18.38;;;;;;;9.08;100.00;97679.84;15299370;19;20021;-77
2024/03/04 12:58:17;;;;;;;20.25;17.85;;;;;;;9.31;100.00;97672.94;15293210;19;20023;-76
2024/03/04 13:03:45;;;;;;;21.95;18.98;;;;;;;9.55;100.00;97675.56;15299294;19;20021;-76
2024/03/04 13:09:13;;;;;;;20.35;18.17;;;;;;;9.79;100.00;97673.78;15293376;19;20371;-76
2024/03/04 13:14:40;;;;;;;19.10;16.95;;;;;;;10.06;100.00;97668.91;15303007;19;20492;-76
2024/03/04 13:20:09;;;;;;;18.48;16.58;;;;;;;10.29;100.00;97665.44;15289085;19;20028;-77
2024/03/04 13:25:34;;;;;;;14.68;13.18;;;;;;;10.57;100.00;97659.53;15290352;19;20619;-76
2024/03/04 13:30:59;;;;;;;15.32;13.15;;;;;;;10.77;100.00;97649.13;15295175;19;20010;-76
2024/03/04 13:36:27;;;;;;;11.50;10.25;;;;;;;11.00;100.00;97637.47;15287971;19;20030;-76
2024/03/04 13:41:52;;;;;;;10.00;9.00;;;;;;;11.24;100.00;97634.50;15291844;19;20110;-76
2024/03/04 13:47:16;;;;;;;12.85;10.73;;;;;;;11.47;100.00;97632.72;15302621;19;20074;-76
2024/03/04 13:52:36;;;;;;;11.10;9.73;;;;;;;11.66;100.00;97624.09;15290507;19;20032;-75
2024/03/04 13:58:03;;;;;;;10.77;9.73;;;;;;;11.90;100.00;97630.19;15292527;19;20010;-76
2024/03/04 14:03:27;;;;;;;11.52;10.32;;;;;;;12.22;100.00;97633.47;15037377;19;5001930;-76
2024/03/04 14:08:54;;;;;;;10.43;9.30;;;;;;;12.70;100.00;97638.28;15286129;19;20022;-77
2024/03/04 14:14:19;;;;;;;11.90;10.68;;;;;;;13.01;100.00;97633.56;15296374;19;20014;-77
2024/03/04 14:19:44;;;;;;;10.52;9.43;;;;;;;13.22;100.00;97638.09;15289471;19;20027;-77
2024/03/04 14:25:11;;;;;;;10.68;9.57;;;;;;;13.18;100.00;97634.09;15286740;19;20011;-77
2024/03/04 14:30:38;;;;;;;11.05;9.90;;;;;;;13.09;100.00;97644.25;15295264;19;20027;-76
2024/03/04 14:36:03;;;;;;;11.82;9.75;;;;;;;12.84;100.00;97638.41;15289913;19;20025;-77
2024/03/04 14:41:30;;;;;;;11.65;9.85;;;;;;;12.54;100.00;97634.00;15290695;19;20472;-79
2024/03/04 14:46:55;;;;;;;12.23;10.75;;;;;;;12.71;100.00;97637.25;15297000;19;20061;-81
2024/03/04 14:52:14;;;;;;;16.80;13.00;;;;;;;12.69;100.00;97638.50;15290327;19;20362;-79
2024/03/04 14:57:42;;;;;;;16.90;15.07;;;;;;;12.54;100.00;97644.81;15299467;19;20042;-79
2024/03/04 15:03:08;;;;;;;18.50;15.52;;;;;;;12.28;100.00;97643.53;15301572;19;20013;-77
2024/03/04 15:08:37;;;;;;;17.80;15.70;;;;;;;12.12;100.00;97643.75;15298203;19;20018;-79
2024/03/04 15:14:06;;;;;;;17.98;16.02;;;;;;;11.91;100.00;97650.75;15296080;19;20015;-78
2024/03/04 15:19:31;;;;;;;17.50;15.60;;;;;;;11.79;100.00;97663.88;15291510;19;20532;-78
2024/03/04 15:24:55;;;;;;;18.13;16.13;;;;;;;11.60;100.00;97676.06;15304536;19;20042;-79
2024/03/04 15:30:23;;;;;;;20.35;18.20;;;;;;;11.33;100.00;97677.56;15295662;19;20032;-79
2024/03/04 15:36:01;;;;;;;18.65;16.80;;;;;;;10.96;100.00;97677.41;15291443;19;20025;-78
2024/03/04 15:41:30;;;;;;;18.25;16.35;;;;;;;10.90;100.00;97675.44;15293970;19;20694;-78
2024/03/04 15:46:57;;;;;;;19.42;17.42;;;;;;;11.04;100.00;97673.81;15346504;19;20018;-79
2024/03/04 15:52:22;;;;;;;22.13;18.83;;;;;;;11.06;100.00;97678.00;15312335;19;20014;-78
2024/03/04 15:57:50;;;;;;;20.90;18.67;;;;;;;10.79;100.00;97698.28;15309827;19;20014;-78
2024/03/04 16:03:17;;;;;;;21.17;18.30;;;;;;;10.69;100.00;97693.13;15303831;19;20019;-78
2024/03/04 16:08:42;;;;;;;23.35;20.85;;;;;;;10.46;100.00;97698.53;15289801;19;20021;-78
2024/03/04 16:14:06;;;;;;;24.75;20.65;;;;;;;10.38;100.00;97704.78;15300545;19;20524;-78
2024/03/04 16:19:33;;;;;;;22.65;19.98;;;;;;;10.12;100.00;97707.75;15303780;19;20018;-78
2024/03/04 16:24:58;;;;;;;22.42;19.48;;;;;;;9.89;100.00;97707.69;15317052;19;20018;-78
2024/03/04 16:30:23;;;;;;;22.08;19.35;;;;;;;9.59;100.00;97704.75;15323561;19;20083;-79
2024/03/04 16:35:57;;;;;;;22.25;18.52;;;;;;;9.54;100.00;97719.59;15316773;19;20379;-79
2024/03/04 16:41:23;;;;;;;20.25;17.33;;;;;;;9.43;100.00;97728.00;15326390;19;20014;-78
2024/03/04 16:46:50;;;;;;;22.70;18.50;;;;;;;9.32;100.00;97744.50;15334913;19;20010;-78
2024/03/04 16:52:17;;;;;;;21.88;18.63;;;;;;;9.19;100.00;97751.22;15079790;19;5001083;-79
2024/03/04 16:57:43;;;;;;;22.02;18.63;;;;;;;9.02;100.00;97762.97;15321606;19;20038;-78
2024/03/04 17:03:08;;;;;;;25.92;19.92;;;;;;;8.77;100.00;97758.44;15324091;19;20373;-79
2024/03/04 17:08:35;;;;;;;26.23;19.63;;;;;;;8.55;100.00;97767.94;15318507;19;20018;-78
2024/03/04 17:14:00;;;;;;;40.20;20.42;;;;;;;8.36;100.00;97770.91;15302450;19;20025;-80
2024/03/04 17:19:24;;;;;;;43.80;20.58;;;;;;;8.13;100.00;97780.38;15304421;19;20011;-79
2024/03/04 17:24:51;;;;;;;51.50;22.27;;;;;;;7.97;100.00;97783.81;15312728;19;20345;-78
2024/03/04 17:30:17;;;;;;;45.13;21.92;;;;;;;7.85;100.00;97790.47;15316601;19;20458;-78
2024/03/04 17:35:49;;;;;;;31.73;22.45;;;;;;;7.79;100.00;97801.84;15297086;19;20345;-77
2024/03/04 17:41:16;;;;;;;163.57;27.15;;;;;;;7.63;100.00;97799.91;15296895;19;20014;-77
2024/03/04 17:46:42;;;;;;;134.77;27.92;;;;;;;7.44;100.00;97809.81;15306637;19;20559;-76
2024/03/04 17:52:09;;;;;;;57.88;25.98;;;;;;;7.40;100.00;97817.34;15303012;19;20074;-78
2024/03/04 17:57:36;;;;;;;86.32;27.58;;;;;;;7.27;100.00;97824.09;15295542;19;20014;-78
2024/03/04 18:03:01;;;;;;;107.53;30.35;;;;;;;7.20;100.00;97818.53;15298285;19;20122;-78
2024/03/04 18:08:25;;;;;;;134.95;32.53;;;;;;;7.11;100.00;97836.34;15297550;19;20015;-78
2024/03/04 18:13:53;;;;;;;231.95;34.78;;;;;;;7.06;100.00;97833.28;15294874;19;20023;-78
2024/03/04 18:19:18;;;;;;;435.55;40.05;;;;;;;7.00;100.00;97841.94;15290361;19;20018;-78
2024/03/04 18:24:43;;;;;;;432.90;41.50;;;;;;;6.93;100.00;97855.09;15287274;19;20017;-78
2024/03/04 18:30:11;;;;;;;498.75;45.45;;;;;;;6.78;100.00;97863.66;15286664;19;20011;-78
2024/03/04 18:35:44;;;;;;;353.38;47.60;;;;;;;6.66;100.00;97872.88;15293553;19;20028;-79
2024/03/04 18:41:10;;;;;;;585.10;50.65;;;;;;;6.60;100.00;97876.19;15291023;19;20094;-77
2024/03/04 18:46:37;;;;;;;336.25;50.90;;;;;;;6.55;100.00;97881.97;15294669;19;20018;-77
2024/03/04 18:52:02;;;;;;;196.23;49.17;;;;;;;6.59;100.00;97888.69;15298855;19;20078;-78
2024/03/04 18:57:27;;;;;;;281.38;47.42;;;;;;;6.66;100.00;97886.25;15296622;19;20025;-79
2024/03/04 19:02:54;;;;;;;270.17;45.65;;;;;;;6.64;100.00;97898.97;15315485;19;20007;-77
2024/03/04 19:08:19;;;;;;;221.93;46.88;;;;;;;6.64;100.00;97888.28;15313833;19;20022;-80
2024/03/04 19:13:44;;;;;;;244.98;42.20;;;;;;;6.66;100.00;97894.28;15293445;19;20343;-83
2024/03/04 19:19:11;;;;;;;144.50;38.15;;;;;;;6.61;100.00;97899.28;15293565;19;20432;-78
2024/03/04 19:24:38;;;;;;;245.75;38.47;;;;;;;6.55;100.00;97905.19;15296150;19;20402;-78
2024/03/04 19:30:05;;;;;;;249.13;39.70;;;;;;;6.48;100.00;97910.31;15292872;19;20031;-78
2024/03/04 19:35:39;;;;;;;178.27;41.45;;;;;;;6.42;100.00;97917.09;15288390;19;20512;-78
2024/03/04 19:41:04;;;;;;;183.20;40.78;;;;;;;6.43;100.00;97918.78;15290357;19;20481;-78
2024/03/04 19:46:30;;;;;;;195.73;43.28;;;;;;;6.37;100.00;97923.88;15296806;19;20031;-78
2024/03/04 19:51:58;;;;;;;130.95;43.13;;;;;;;6.39;100.00;97928.09;15304156;19;20011;-77
2024/03/04 19:57:24;;;;;;;110.28;42.88;;;;;;;6.42;100.00;97941.16;15297079;19;20025;-78
2024/03/04 20:02:57;;;;;;;94.53;39.95;;;;;;;6.44;100.00;97923.16;15278675;19;20465;-76
2024/03/04 20:08:24;;;;;;;83.55;38.28;;;;;;;6.42;100.00;97930.47;15283359;19;20025;-77
2024/03/04 20:13:49;;;;;;;93.20;38.05;;;;;;;6.35;100.00;97932.06;15288353;19;20078;-77
2024/03/04 20:19:13;;;;;;;81.88;36.78;;;;;;;6.32;100.00;97932.34;15280583;19;20483;-77
2024/03/04 20:24:40;;;;;;;64.47;33.92;;;;;;;6.35;100.00;97932.06;15283810;19;20010;-77
2024/03/04 20:30:05;;;;;;;70.68;32.67;;;;;;;6.38;100.00;97930.91;15298816;19;20014;-77
2024/03/04 20:35:36;;;;;;;68.20;31.95;;;;;;;6.39;100.00;97928.09;15300275;19;20018;-77
2024/03/04 20:41:05;;;;;;;48.10;28.47;;;;;;;6.44;100.00;97933.00;15312021;19;20022;-78
2024/03/04 20:46:30;;;;;;;48.25;27.80;;;;;;;6.44;100.00;97939.19;15316100;19;20287;-77
2024/03/04 20:51:55;;;;;;;51.58;28.60;;;;;;;6.38;100.00;97937.13;15348788;19;20022;-77
2024/03/04 20:57:22;;;;;;;47.10;28.60;;;;;;;6.43;100.00;97940.19;15321085;19;20063;-78
2024/03/04 21:02:49;;;;;;;39.03;24.02;;;;;;;6.47;100.00;97941.59;15310306;19;20025;-78
2024/03/04 21:08:14;;;;;;;41.40;24.98;;;;;;;6.53;100.00;97936.63;15312461;19;20062;-79
2024/03/04 21:13:41;;;;;;;44.53;25.00;;;;;;;6.57;100.00;97940.69;15308966;19;20022;-79
2024/03/04 21:19:06;;;;;;;39.10;24.02;;;;;;;6.57;100.00;97951.41;15300632;19;20021;-75
2024/03/04 21:24:31;;;;;;;38.80;22.80;;;;;;;6.63;100.00;97943.63;15289977;19;20359;-75
2024/03/04 21:29:58;;;;;;;35.47;22.60;;;;;;;6.69;100.00;97938.69;15296569;19;20010;-75
2024/03/04 21:35:29;;;;;;;35.70;21.55;;;;;;;6.70;100.00;97941.19;15293215;19;20484;-75
2024/03/04 21:40:54;;;;;;;36.50;22.00;;;;;;;6.73;100.00;97938.25;15299287;19;20018;-75
2024/03/04 21:46:21;;;;;;;33.25;20.27;;;;;;;6.71;100.00;97931.31;15296639;19;20081;-76
2024/03/04 21:51:48;;;;;;;33.55;20.35;;;;;;;6.67;100.00;97929.97;15298590;19;20052;-76
2024/03/04 21:57:14;;;;;;;35.25;21.20;;;;;;;6.61;100.00;97926.03;15287322;19;20363;-75
2024/03/04 22:02:41;;;;;;;35.28;20.63;;;;;;;6.59;100.00;97936.03;15289474;19;20042;-76
2024/03/04 22:08:06;;;;;;;33.67;20.58;;;;;;;6.59;100.00;97928.84;15293612;19;20018;-76
2024/03/04 22:13:31;;;;;;;29.67;19.23;;;;;;;6.62;100.00;97933.91;15304885;19;20022;-75
2024/03/04 22:18:58;;;;;;;26.88;18.10;;;;;;;6.66;100.00;97926.41;15296188;19;20086;-76
2024/03/04 22:24:23;;;;;;;27.08;18.48;;;;;;;6.69;100.00;97926.13;15290760;19;20483;-76
2024/03/04 22:29:48;;;;;;;26.65;18.55;;;;;;;6.69;100.00;97934.16;15286511;19;20085;-76
2024/03/04 22:35:16;;;;;;;22.90;16.88;;;;;;;6.73;100.00;97924.84;15293235;19;20078;-76
2024/03/04 22:40:40;;;;;;;23.65;17.27;;;;;;;6.74;100.00;97931.88;15295147;19;20014;-76
2024/03/04 22:46:05;;;;;;;27.65;18.45;;;;;;;6.74;100.00;97934.56;15287525;19;20028;-75
2024/03/04 22:51:33;;;;;;;27.42;18.85;;;;;;;6.72;100.00;97933.88;15287485;19;20014;-75
2024/03/04 22:56:58;;;;;;;28.35;19.60;;;;;;;6.70;100.00;97946.56;15285407;19;20485;-76
2024/03/04 23:02:23;;;;;;;37.03;20.95;;;;;;;6.73;100.00;97943.59;15283165;19;20024;-76
2024/03/04 23:07:52;;;;;;;37.75;21.60;;;;;;;6.71;100.00;97942.88;15281403;19;20019;-76
2024/03/04 23:13:17;;;;;;;37.38;21.48;;;;;;;6.68;100.00;97953.06;15285764;19;20007;-76
2024/03/04 23:18:42;;;;;;;41.42;23.42;;;;;;;6.64;100.00;97947.16;15282177;19;20074;-76
2024/03/04 23:24:10;;;;;;;50.85;24.90;;;;;;;6.50;100.00;97947.63;15286545;19;20402;-76
2024/03/04 23:29:36;;;;;;;49.92;26.05;;;;;;;6.35;100.00;97953.47;15283010;19;20029;-75
2024/03/04 23:35:00;;;;;;;53.92;25.60;;;;;;;6.31;100.00;97952.06;15283162;19;20003;-76
2024/03/04 23:40:27;;;;;;;62.50;27.15;;;;;;;6.30;100.00;97966.41;15294991;19;20399;-75
2024/03/04 23:45:53;;;;;;;54.25;27.60;;;;;;;6.28;100.00;97963.06;15283173;19;20490;-76
2024/03/04 23:51:18;;;;;;;48.92;26.27;;;;;;;6.35;100.00;97969.50;15284445;19;20025;-76
2024/03/04 23:56:48;;;;;;;44.15;23.55;;;;;;;6.42;100.00;97967.94;15283079;19;20011;-74
